Terminal Aerodrome Forecast
Issued by NWS

Current Version | Previous Version | Graphics & Text | Print | Product List | Glossary On
Versions: 1 2 3 4 5 6 7 8 9 10 11 12 13 14 15 16 17 18 19 20 21 22 23 24 25
000
FTUS41 KILN 221700
TAFLCK
TAF
KLCK 221736Z 2218/2318 20006KT P6SM SCT040
      TEMPO 2218/2221 BKN040
     FM230000 22005KT P6SM SCT250
      TEMPO 2308/2311 5SM BR
     FM231400 28007KT P6SM VCTS BKN050CB=

USA.gov is the U.S. government's official web portal to all federal, state and local government web resources and services.